createdAt,value
2019-01-29T00:01:59.907Z,69.59
2019-01-29T00:04:28.489Z,69.59
2019-01-29T00:06:57.042Z,67.93
2019-01-29T00:09:25.647Z,65.32
2019-01-29T00:11:54.437Z,66.95
2019-01-29T00:14:23.236Z,67.53
2019-01-29T00:16:51.820Z,69.99
2019-01-29T00:19:20.400Z,66.75
2019-01-29T00:21:49.040Z,67.14
2019-01-29T00:24:17.599Z,66.55
2019-01-29T00:26:46.163Z,64.74
2019-01-29T00:29:14.728Z,64.22
2019-01-29T00:31:43.548Z,65.26
2019-01-29T00:34:12.126Z,64.98
2019-01-29T00:36:40.706Z,66.57
2019-01-29T00:39:09.554Z,67.24
2019-01-29T00:41:38.228Z,65.73
2019-01-29T00:44:06.800Z,65.23
2019-01-29T00:46:35.639Z,63.54
2019-01-29T00:49:04.346Z,63.82
2019-01-29T00:51:32.935Z,66.04
2019-01-29T00:54:01.492Z,66.37
2019-01-29T00:56:30.064Z,69.10
2019-01-29T00:58:58.625Z,69.88
2019-01-29T01:01:27.201Z,67.69
2019-01-29T01:03:55.783Z,66.48
2019-01-29T01:06:24.423Z,67.74
2019-01-29T01:08:53.268Z,70.75
2019-01-29T01:11:21.838Z,70.30
2019-01-29T01:13:50.410Z,67.45
2019-01-29T01:16:19.083Z,68.32
2019-01-29T01:18:47.901Z,67.93
2019-01-29T01:21:16.695Z,68.42
2019-01-29T01:23:45.283Z,68.15
2019-01-29T01:26:13.863Z,68.30
2019-01-29T01:28:42.459Z,66.91
2019-01-29T01:31:11.013Z,67.42
2019-01-29T01:33:39.812Z,67.69
2019-01-29T01:36:08.360Z,69.68
2019-01-29T01:38:37.182Z,68.44
2019-01-29T01:41:05.987Z,68.59
2019-01-29T01:43:34.564Z,68.33
2019-01-29T01:46:03.215Z,68.00
2019-01-29T01:48:31.775Z,68.92
2019-01-29T01:51:00.409Z,68.20
2019-01-29T01:53:28.990Z,67.51
2019-01-29T01:55:57.817Z,67.81
2019-01-29T01:58:26.371Z,67.85
2019-01-29T02:00:55.035Z,68.78
2019-01-29T02:03:23.606Z,69.69
2019-01-29T02:05:52.160Z,69.96
2019-01-29T02:08:20.727Z,68.73
2019-01-29T02:10:49.751Z,67.54
2019-01-29T02:13:18.577Z,69.12
2019-01-29T02:15:47.145Z,69.92
2019-01-29T02:18:15.812Z,67.23
2019-01-29T02:20:44.604Z,67.65
2019-01-29T02:23:13.201Z,66.46
2019-01-29T02:25:42.005Z,67.70
2019-01-29T02:28:10.587Z,68.05
2019-01-29T02:30:39.160Z,69.74
2019-01-29T02:33:07.716Z,67.82
2019-01-29T02:35:36.294Z,67.59
2019-01-29T02:38:04.934Z,67.34
2019-01-29T02:40:33.486Z,66.17
2019-01-29T02:43:02.036Z,69.56
2019-01-29T02:45:30.916Z,70.93
2019-01-29T02:47:59.476Z,68.59
2019-01-29T02:50:28.036Z,68.79
2019-01-29T02:52:56.828Z,68.72
2019-01-29T02:55:25.391Z,69.80
2019-01-29T02:57:53.963Z,65.85
2019-01-29T03:00:27.005Z,67.72
2019-01-29T03:02:55.666Z,68.41
2019-01-29T03:05:24.310Z,66.30
2019-01-29T03:07:53.264Z,66.94
2019-01-29T03:10:23.739Z,68.22
2019-01-29T03:12:52.660Z,67.57
2019-01-29T03:15:24.944Z,68.05
2019-01-29T03:17:53.606Z,70.54
2019-01-29T03:20:22.276Z,68.31
2019-01-29T03:22:50.912Z,67.95
2019-01-29T03:25:19.843Z,70.07
2019-01-29T03:27:48.646Z,68.26
2019-01-29T03:30:18.024Z,68.15
2019-01-29T03:32:46.691Z,67.94
2019-01-29T03:35:15.509Z,67.98
2019-01-29T03:37:44.415Z,67.62
2019-01-29T03:40:16.279Z,69.12
2019-01-29T03:42:44.926Z,68.02
2019-01-29T03:45:15.361Z,68.35
2019-01-29T03:47:43.948Z,68.57
2019-01-29T03:50:14.077Z,67.96
2019-01-29T03:52:42.792Z,69.67
2019-01-29T03:55:11.450Z,67.63
2019-01-29T03:57:40.007Z,67.52
2019-01-29T04:02:46.591Z,69.54
2019-01-29T04:05:15.170Z,68.85
2019-01-29T04:07:43.813Z,70.78
2019-01-29T04:10:15.563Z,68.26
2019-01-29T04:12:44.161Z,69.02
2019-01-29T04:15:14.598Z,67.52
2019-01-29T04:17:43.413Z,67.59
2019-01-29T04:20:14.546Z,66.84
2019-01-29T04:22:43.203Z,67.18
2019-01-29T04:25:11.845Z,67.44
2019-01-29T04:27:40.404Z,68.45
2019-01-29T04:30:12.537Z,66.74
2019-01-29T04:32:41.093Z,69.48
2019-01-29T04:35:09.748Z,67.68
2019-01-29T04:37:38.305Z,69.74
2019-01-29T04:40:08.502Z,66.45
2019-01-29T04:42:37.086Z,67.34
2019-01-29T04:45:07.498Z,66.11
2019-01-29T04:47:36.093Z,68.79
2019-01-29T04:50:05.119Z,69.75
2019-01-29T04:52:33.702Z,69.04
2019-01-29T04:55:02.270Z,70.62
2019-01-29T04:57:31.100Z,67.31
2019-01-29T04:59:59.660Z,66.08
2019-01-29T05:02:28.563Z,69.61
2019-01-29T05:04:57.127Z,69.09
2019-01-29T05:07:25.689Z,68.40
2019-01-29T05:09:54.294Z,68.54
2019-01-29T05:12:22.909Z,67.44
2019-01-29T05:14:51.711Z,66.20
2019-01-29T05:17:20.296Z,67.35
2019-01-29T05:19:49.364Z,68.13
2019-01-29T05:22:18.396Z,66.08
2019-01-29T05:24:46.990Z,67.47
2019-01-29T05:27:15.593Z,65.82
2019-01-29T05:29:44.168Z,65.23
2019-01-29T05:32:12.785Z,65.12
2019-01-29T05:34:41.380Z,65.92
2019-01-29T05:37:09.949Z,66.89
2019-01-29T05:39:39.137Z,66.22
2019-01-29T05:42:08.378Z,69.08
2019-01-29T05:44:36.944Z,68.94
2019-01-29T05:47:05.599Z,67.99
2019-01-29T05:49:34.174Z,68.15
2019-01-29T05:52:02.753Z,69.22
2019-01-29T05:54:31.399Z,66.55
2019-01-29T05:57:00.000Z,65.89
2019-01-29T05:59:28.597Z,67.43
2019-01-29T06:01:57.245Z,67.45
2019-01-29T06:04:25.969Z,66.86
2019-01-29T06:06:54.755Z,66.73
2019-01-29T06:09:23.434Z,66.16
2019-01-29T06:11:52.082Z,65.32
2019-01-29T06:14:20.648Z,64.54
2019-01-29T06:16:49.279Z,65.46
2019-01-29T06:19:17.829Z,63.24
2019-01-29T06:21:46.468Z,67.22
2019-01-29T06:24:15.055Z,67.77
2019-01-29T06:26:46.986Z,66.61
2019-01-29T06:29:17.840Z,65.16
2019-01-29T06:31:46.658Z,65.23
2019-01-29T06:34:15.258Z,64.99
2019-01-29T06:36:43.879Z,64.79
2019-01-29T06:39:12.445Z,66.37
2019-01-29T06:41:41.310Z,67.76
2019-01-29T06:44:09.894Z,67.89
2019-01-29T06:46:38.499Z,67.82
2019-01-29T06:49:07.303Z,65.16
2019-01-29T06:51:35.870Z,65.27
2019-01-29T06:54:04.531Z,64.45
2019-01-29T06:56:33.105Z,66.03
2019-01-29T06:59:01.662Z,67.91
2019-01-29T07:01:30.232Z,68.63
2019-01-29T07:03:58.809Z,70.13
2019-01-29T07:06:27.457Z,69.51
2019-01-29T07:08:56.267Z,68.47
2019-01-29T07:11:24.841Z,69.00
2019-01-29T07:13:53.669Z,69.31
2019-01-29T07:16:29.770Z,66.97
2019-01-29T07:19:05.369Z,68.59
2019-01-29T07:21:33.961Z,69.94
2019-01-29T07:24:02.828Z,68.12
2019-01-29T07:26:31.403Z,67.37
2019-01-29T07:29:00.058Z,64.94
2019-01-29T07:31:28.882Z,64.53
2019-01-29T07:33:57.452Z,65.52
2019-01-29T07:36:26.036Z,63.61
2019-01-29T07:38:54.622Z,64.76
2019-01-29T07:41:23.189Z,64.98
2019-01-29T07:43:51.764Z,62.53
2019-01-29T07:46:20.344Z,65.70
2019-01-29T07:48:48.902Z,65.40
2019-01-29T07:51:17.557Z,65.98
2019-01-29T07:53:46.196Z,64.60
2019-01-29T07:56:14.754Z,65.74
2019-01-29T07:58:43.337Z,62.50
2019-01-29T08:01:11.901Z,62.20
2019-01-29T08:03:40.486Z,61.88
2019-01-29T08:06:09.412Z,61.95
2019-01-29T08:08:38.225Z,61.75
2019-01-29T08:11:06.994Z,62.02
2019-01-29T08:13:35.707Z,62.53
2019-01-29T08:16:04.553Z,63.42
2019-01-29T08:18:33.146Z,62.37
2019-01-29T08:21:01.725Z,61.31
2019-01-29T08:23:30.308Z,61.86
2019-01-29T08:25:58.974Z,62.67
2019-01-29T08:28:27.554Z,61.62
2019-01-29T08:30:56.366Z,63.40
2019-01-29T08:33:24.949Z,62.33
2019-01-29T08:35:53.696Z,62.36
2019-01-29T08:38:23.841Z,63.52
2019-01-29T08:40:52.651Z,62.56
2019-01-29T08:43:21.328Z,62.96
2019-01-29T08:45:49.985Z,61.86
2019-01-29T08:48:18.953Z,61.63
2019-01-29T08:50:47.530Z,62.62
2019-01-29T08:53:16.080Z,60.39
2019-01-29T08:55:45.076Z,60.54
2019-01-29T08:58:13.587Z,60.61
2019-01-29T09:00:42.163Z,61.14
2019-01-29T09:03:10.753Z,58.87
2019-01-29T09:05:39.335Z,60.19
2019-01-29T09:08:08.063Z,59.26
2019-01-29T09:10:37.055Z,59.47
2019-01-29T09:13:05.696Z,58.05
2019-01-29T09:15:34.277Z,59.33
2019-01-29T09:18:02.925Z,60.70
2019-01-29T09:20:31.840Z,58.56
2019-01-29T09:23:00.438Z,58.60
2019-01-29T09:25:29.029Z,59.52
2019-01-29T09:27:57.609Z,59.36
2019-01-29T09:30:26.440Z,59.38
2019-01-29T09:32:55.017Z,58.24
2019-01-29T09:35:23.601Z,57.82
2019-01-29T09:37:52.414Z,57.61
2019-01-29T09:40:21.066Z,57.92
2019-01-29T09:42:49.755Z,57.86
2019-01-29T09:45:18.747Z,60.12
2019-01-29T09:47:47.504Z,58.96
2019-01-29T09:50:18.255Z,57.73
2019-01-29T09:52:46.907Z,58.12
2019-01-29T09:55:16.731Z,56.34
2019-01-29T09:57:45.333Z,56.21
2019-01-29T10:00:25.727Z,56.89
2019-01-29T10:02:54.423Z,55.93
2019-01-29T10:05:23.337Z,56.64
2019-01-29T10:07:51.965Z,54.57
2019-01-29T10:10:20.630Z,52.27
2019-01-29T10:12:49.195Z,52.86
2019-01-29T10:15:20.628Z,53.39
2019-01-29T10:17:49.625Z,54.37
2019-01-29T10:20:18.367Z,55.25
2019-01-29T10:22:47.265Z,55.48
2019-01-29T10:25:16.194Z,54.38
2019-01-29T10:27:44.845Z,53.91
2019-01-29T10:30:13.759Z,53.31
2019-01-29T10:32:42.638Z,52.87
2019-01-29T10:35:13.748Z,52.46
2019-01-29T10:37:42.378Z,51.68
2019-01-29T10:40:13.262Z,52.14
2019-01-29T10:42:41.852Z,52.18
2019-01-29T10:45:11.503Z,53.62
2019-01-29T10:47:40.091Z,51.54
2019-01-29T10:50:10.453Z,52.34
2019-01-29T10:52:39.084Z,51.71
2019-01-29T10:55:08.510Z,51.66
2019-01-29T10:57:37.460Z,52.91
2019-01-29T11:00:08.732Z,53.45
2019-01-29T11:02:37.328Z,53.89
2019-01-29T11:05:06.742Z,53.75
2019-01-29T11:07:35.421Z,52.17
2019-01-29T11:10:05.537Z,54.44
2019-01-29T11:12:34.256Z,54.44
2019-01-29T11:15:02.814Z,52.45
2019-01-29T11:17:31.623Z,51.69
2019-01-29T11:20:00.199Z,53.34
2019-01-29T11:22:28.869Z,52.84
2019-01-29T11:24:57.428Z,53.32
2019-01-29T11:27:26.021Z,54.33
2019-01-29T11:29:54.841Z,53.98
2019-01-29T11:32:23.784Z,54.67
2019-01-29T11:34:52.365Z,54.42
2019-01-29T11:37:20.951Z,54.74
2019-01-29T11:39:49.519Z,53.63
2019-01-29T11:42:18.359Z,54.30
2019-01-29T11:44:47.173Z,53.63
2019-01-29T11:47:15.766Z,54.76
2019-01-29T11:49:44.351Z,56.23
2019-01-29T11:52:12.959Z,54.85
2019-01-29T11:54:41.768Z,54.70
2019-01-29T11:57:10.371Z,54.74
2019-01-29T11:59:38.928Z,55.67
2019-01-29T12:02:07.771Z,55.79
2019-01-29T12:04:36.363Z,54.66
2019-01-29T12:07:05.130Z,55.13
2019-01-29T12:09:33.725Z,54.51
2019-01-29T12:12:02.294Z,54.01
2019-01-29T12:14:30.872Z,53.49
2019-01-29T12:16:59.658Z,52.96
2019-01-29T12:19:28.243Z,50.52
2019-01-29T12:21:56.794Z,48.60
2019-01-29T12:24:25.616Z,47.45
2019-01-29T12:26:54.436Z,47.00
2019-01-29T12:29:23.013Z,46.92
2019-01-29T12:31:51.668Z,45.00
2019-01-29T12:34:20.245Z,44.42
2019-01-29T12:36:48.814Z,45.20
2019-01-29T12:39:17.382Z,44.74
2019-01-29T12:41:46.017Z,43.51
2019-01-29T12:44:14.607Z,44.01
2019-01-29T12:46:43.250Z,45.25
2019-01-29T12:49:11.822Z,45.74
2019-01-29T12:52:07.046Z,46.58
2019-01-29T12:54:35.706Z,48.19
2019-01-29T12:57:04.519Z,48.49
2019-01-29T12:59:33.090Z,48.74
2019-01-29T13:02:01.896Z,49.30
2019-01-29T13:04:30.683Z,50.43
2019-01-29T13:06:59.269Z,51.66
2019-01-29T13:09:28.089Z,53.74
2019-01-29T13:11:56.669Z,53.60
2019-01-29T13:14:25.260Z,53.04
2019-01-29T13:16:54.062Z,54.02
2019-01-29T13:19:22.632Z,53.06
2019-01-29T13:21:51.223Z,53.23
2019-01-29T13:24:19.807Z,53.25
2019-01-29T13:26:48.422Z,53.72
2019-01-29T13:29:16.998Z,54.61
2019-01-29T13:31:45.582Z,54.49
2019-01-29T13:34:14.151Z,54.69
2019-01-29T13:36:42.830Z,56.16
2019-01-29T13:39:11.636Z,55.53
2019-01-29T13:41:40.215Z,55.57
2019-01-29T13:44:08.785Z,55.00
2019-01-29T13:46:37.615Z,52.63
2019-01-29T13:49:06.266Z,52.80
2019-01-29T13:51:34.837Z,53.57
2019-01-29T13:54:03.657Z,53.99
2019-01-29T13:56:38.832Z,55.02
2019-01-29T13:59:02.542Z,54.52
2019-01-29T14:01:31.113Z,54.13
2019-01-29T14:04:06.093Z,54.88
2019-01-29T14:06:29.983Z,56.41
2019-01-29T14:08:58.604Z,56.22
2019-01-29T14:11:27.273Z,56.10
2019-01-29T14:13:55.857Z,55.10
2019-01-29T14:16:24.429Z,57.47
2019-01-29T14:18:53.005Z,56.91
2019-01-29T14:21:21.569Z,55.81
2019-01-29T14:23:50.146Z,55.42
2019-01-29T14:26:18.705Z,55.28
2019-01-29T14:28:47.294Z,54.25
2019-01-29T14:31:15.928Z,54.92
2019-01-29T14:33:47.213Z,54.67
2019-01-29T14:36:16.925Z,55.68
2019-01-29T14:39:08.588Z,55.83
2019-01-29T14:41:37.394Z,56.20
2019-01-29T14:44:08.931Z,54.21
2019-01-29T14:46:37.586Z,53.53
2019-01-29T14:49:06.262Z,52.98
2019-01-29T14:51:35.110Z,53.97
2019-01-29T14:54:04.213Z,53.73
2019-01-29T14:56:33.122Z,53.43
2019-01-29T14:59:01.702Z,54.70
2019-01-29T15:01:30.348Z,55.01
2019-01-29T15:03:59.270Z,54.22
2019-01-29T15:06:32.685Z,52.72
2019-01-29T15:08:58.154Z,52.35
2019-01-29T15:11:26.728Z,53.52
2019-01-29T15:13:55.567Z,52.39
2019-01-29T15:16:39.911Z,51.94
2019-01-29T15:19:14.634Z,52.40
2019-01-29T15:21:43.281Z,53.06
2019-01-29T15:24:11.865Z,53.62
2019-01-29T15:26:40.425Z,52.18
2019-01-29T15:29:09.547Z,51.76
2019-01-29T15:31:38.132Z,52.56
2019-01-29T15:34:06.765Z,52.62
2019-01-29T15:36:36.194Z,53.23
2019-01-29T15:39:08.327Z,53.50
2019-01-29T15:41:37.014Z,53.41
2019-01-29T15:44:05.752Z,54.32
2019-01-29T15:46:34.411Z,53.45
2019-01-29T15:49:02.985Z,53.20
2019-01-29T15:51:31.565Z,54.37
2019-01-29T15:54:00.127Z,53.98
2019-01-29T15:56:28.927Z,54.79
2019-01-29T15:58:57.767Z,55.41
2019-01-29T16:01:26.688Z,55.82
2019-01-29T16:03:55.316Z,54.93
2019-01-29T16:06:24.021Z,54.89
2019-01-29T16:08:53.209Z,56.62
2019-01-29T16:11:21.796Z,55.16
2019-01-29T16:13:50.382Z,55.51
2019-01-29T16:16:19.054Z,54.92
2019-01-29T16:18:47.634Z,56.70
2019-01-29T16:21:16.319Z,56.67
2019-01-29T16:23:45.556Z,56.75
2019-01-29T16:26:14.248Z,55.33
2019-01-29T16:28:43.049Z,56.30
2019-01-29T16:31:11.639Z,56.09
2019-01-29T16:33:40.215Z,57.72
2019-01-29T16:36:08.982Z,58.21
2019-01-29T16:38:37.558Z,58.19
2019-01-29T16:41:06.447Z,57.91
2019-01-29T16:43:35.041Z,57.22
2019-01-29T16:46:03.614Z,58.67
2019-01-29T16:48:32.382Z,57.54
2019-01-29T16:51:00.990Z,59.11
2019-01-29T16:53:29.744Z,60.92
2019-01-29T16:55:58.326Z,61.42
2019-01-29T16:58:26.894Z,61.78
2019-01-29T17:00:55.529Z,59.49
2019-01-29T17:03:24.173Z,59.92
2019-01-29T17:05:53.049Z,58.74
2019-01-29T17:08:21.656Z,59.40
2019-01-29T17:10:50.262Z,60.91
2019-01-29T17:13:18.942Z,59.20
2019-01-29T17:15:47.540Z,58.10
2019-01-29T17:18:16.131Z,61.37
2019-01-29T17:20:44.879Z,60.73
2019-01-29T17:23:13.649Z,61.86
2019-01-29T17:25:42.603Z,61.18
2019-01-29T17:28:11.480Z,61.47
2019-01-29T17:30:41.901Z,60.99
2019-01-29T17:33:11.325Z,62.57
2019-01-29T17:35:40.649Z,63.45
2019-01-29T17:38:09.283Z,63.17
2019-01-29T17:40:38.344Z,61.82
2019-01-29T17:43:07.877Z,61.04
2019-01-29T17:45:39.221Z,58.40
2019-01-29T17:48:08.412Z,59.34
2019-01-29T17:50:38.432Z,58.60
2019-01-29T17:53:07.160Z,57.84
2019-01-29T17:55:37.500Z,60.24
2019-01-29T17:58:06.812Z,61.70
2019-01-29T18:00:36.114Z,61.69
2019-01-29T18:03:05.406Z,63.84
2019-01-29T18:05:34.980Z,61.83
2019-01-29T18:08:03.714Z,60.06
2019-01-29T18:10:32.636Z,60.59
2019-01-29T18:13:01.452Z,57.99
2019-01-29T18:15:30.579Z,58.10
2019-01-29T18:18:00.412Z,56.84
2019-01-29T18:20:29.697Z,56.62
2019-01-29T18:22:58.609Z,56.78
2019-01-29T18:25:27.374Z,55.76
2019-01-29T18:28:01.243Z,59.01
2019-01-29T18:30:29.140Z,61.23
2019-01-29T18:32:57.775Z,61.39
2019-01-29T18:35:27.178Z,59.68
2019-01-29T18:37:55.936Z,63.07
2019-01-29T18:40:30.380Z,64.86
2019-01-29T18:42:59.121Z,64.09
2019-01-29T18:45:27.879Z,65.55
2019-01-29T18:47:56.731Z,65.69
2019-01-29T18:50:26.124Z,64.30
2019-01-29T18:52:54.782Z,63.59
2019-01-29T18:55:23.379Z,63.35
2019-01-29T18:57:52.219Z,63.22
2019-01-29T19:00:22.536Z,64.59
2019-01-29T19:02:51.235Z,64.41
2019-01-29T19:05:22.680Z,65.81
2019-01-29T19:07:51.766Z,65.67
2019-01-29T19:10:21.029Z,65.53
2019-01-29T19:12:50.140Z,67.09
2019-01-29T19:15:20.417Z,65.37
2019-01-29T19:17:49.105Z,65.61
2019-01-29T19:20:20.903Z,64.90
2019-01-29T19:22:49.923Z,65.71
2019-01-29T19:25:18.623Z,68.50
2019-01-29T19:27:47.418Z,67.13
2019-01-29T19:30:18.925Z,67.38
2019-01-29T19:32:47.474Z,68.47
2019-01-29T19:35:16.449Z,67.76
2019-01-29T19:37:45.027Z,66.29
2019-01-29T19:40:13.834Z,67.50
2019-01-29T19:42:42.520Z,67.40
2019-01-29T19:45:16.993Z,68.88
2019-01-29T19:47:45.850Z,68.96
2019-01-29T19:50:17.124Z,68.86
2019-01-29T19:52:45.696Z,67.58
2019-01-29T19:55:14.575Z,67.37
2019-01-29T19:57:43.866Z,66.87
2019-01-29T20:00:23.864Z,65.21
2019-01-29T20:02:52.531Z,66.40
2019-01-29T20:05:21.333Z,66.01
2019-01-29T20:07:50.052Z,65.56
2019-01-29T20:10:19.026Z,63.54
2019-01-29T20:12:47.640Z,64.77
2019-01-29T20:15:17.308Z,64.09
2019-01-29T20:17:46.567Z,62.73
2019-01-29T20:20:21.113Z,63.47
2019-01-29T20:22:49.930Z,62.30
2019-01-29T20:25:18.928Z,62.77
2019-01-29T20:27:47.669Z,65.25
2019-01-29T20:30:19.331Z,63.83
2019-01-29T20:32:53.318Z,63.80
2019-01-29T20:35:18.806Z,63.00
2019-01-29T20:37:48.542Z,63.43
2019-01-29T20:40:17.996Z,62.83
2019-01-29T20:42:46.675Z,61.95
2019-01-29T20:45:16.262Z,64.17
2019-01-29T20:47:45.608Z,63.78
2019-01-29T20:50:17.289Z,64.38
2019-01-29T20:52:45.866Z,64.51
2019-01-29T20:55:14.549Z,65.02
2019-01-29T20:57:43.219Z,64.09
2019-01-29T21:00:18.237Z,66.60
2019-01-29T21:02:46.905Z,66.47
2019-01-29T21:05:15.570Z,64.25
2019-01-29T21:07:44.291Z,66.15
2019-01-29T21:10:17.708Z,66.58
2019-01-29T21:12:46.513Z,66.12
2019-01-29T21:15:16.432Z,65.42
2019-01-29T21:17:46.140Z,66.69
2019-01-29T21:20:20.000Z,66.81
2019-01-29T21:22:48.867Z,65.98
2019-01-29T21:25:17.686Z,66.29
2019-01-29T21:27:46.387Z,65.45
2019-01-29T21:30:21.352Z,63.52
2019-01-29T21:32:49.938Z,65.99
2019-01-29T21:35:18.879Z,66.79
2019-01-29T21:37:47.770Z,64.78
2019-01-29T21:40:17.101Z,63.79
2019-01-29T21:42:45.738Z,61.04
2019-01-29T21:45:14.749Z,62.16
2019-01-29T21:47:43.528Z,63.41
2019-01-29T21:50:14.974Z,63.63
2019-01-29T21:52:43.799Z,61.92
2019-01-29T21:55:12.520Z,63.12
2019-01-29T21:57:42.444Z,64.26
2019-01-29T22:00:15.344Z,65.29
2019-01-29T22:02:44.387Z,63.66
2019-01-29T22:05:13.246Z,63.63
2019-01-29T22:07:42.391Z,61.11
2019-01-29T22:10:13.550Z,63.83
2019-01-29T22:12:42.289Z,62.09
2019-01-29T22:15:12.388Z,60.32
2019-01-29T22:17:41.307Z,61.39
2019-01-29T22:20:12.866Z,63.09
2019-01-29T22:22:41.879Z,63.93
2019-01-29T22:25:12.954Z,65.12
2019-01-29T22:27:41.742Z,62.62
2019-01-29T22:30:14.341Z,63.11
2019-01-29T22:32:42.918Z,62.38
2019-01-29T22:35:11.588Z,64.66
2019-01-29T22:37:40.145Z,63.40
2019-01-29T22:40:12.627Z,66.00
2019-01-29T22:42:41.455Z,64.67
2019-01-29T22:45:11.303Z,61.36
2019-01-29T22:47:39.876Z,61.84
2019-01-29T22:50:17.498Z,66.12
2019-01-29T22:52:46.332Z,66.03
2019-01-29T22:55:15.099Z,65.49
2019-01-29T22:57:43.837Z,66.82
2019-01-29T23:00:47.453Z,65.96
2019-01-29T23:03:16.636Z,64.81
2019-01-29T23:05:45.859Z,66.48
2019-01-29T23:08:14.427Z,67.21
2019-01-29T23:10:43.442Z,67.09
2019-01-29T23:13:12.003Z,64.41
2019-01-29T23:15:40.807Z,62.55
2019-01-29T23:18:09.576Z,61.66
2019-01-29T23:20:41.225Z,62.45
2019-01-29T23:23:09.778Z,61.43
2019-01-29T23:25:38.348Z,62.51
2019-01-29T23:28:06.926Z,61.34
2019-01-29T23:30:35.516Z,62.52
2019-01-29T23:33:04.169Z,64.26
2019-01-29T23:35:33.044Z,63.92
2019-01-29T23:38:01.679Z,62.88
2019-01-29T23:40:30.263Z,65.90
2019-01-29T23:42:58.821Z,65.78
2019-01-29T23:45:27.392Z,63.89
2019-01-29T23:48:02.295Z,65.22
2019-01-29T23:50:31.537Z,65.61
2019-01-29T23:53:00.216Z,65.63
2019-01-29T23:55:28.884Z,67.00
2019-01-29T23:57:57.684Z,65.62
